createdAt,value
2022-11-10T00:01:09.980Z,4.72
2022-11-10T00:03:38.497Z,5.38
2022-11-10T00:06:06.449Z,4.43
2022-11-10T00:08:33.127Z,3.60
2022-11-10T00:11:06.295Z,3.97
2022-11-10T00:13:35.855Z,5.78
2022-11-10T00:16:23.709Z,3.75
2022-11-10T00:18:50.642Z,5.13
2022-11-10T00:21:18.302Z,6.53
2022-11-10T00:23:49.091Z,5.30
2022-11-10T00:29:09.343Z,5.00
2022-11-10T00:31:38.569Z,4.22
2022-11-10T00:34:05.951Z,5.80
2022-11-10T00:36:34.331Z,6.38
2022-11-10T00:39:00.961Z,5.80
2022-11-10T00:41:27.551Z,4.78
2022-11-10T00:43:54.147Z,5.18
2022-11-10T00:46:20.775Z,6.32
2022-11-10T00:48:47.442Z,5.20
2022-11-10T00:51:24.730Z,6.07
2022-11-10T00:53:52.251Z,6.20
2022-11-10T00:56:19.974Z,7.05
2022-11-10T00:58:47.156Z,5.82
2022-11-10T01:01:14.953Z,4.80
2022-11-10T01:03:41.858Z,7.85
2022-11-10T01:06:13.789Z,5.40
2022-11-10T01:08:41.636Z,6.90
2022-11-10T01:11:30.920Z,7.72
2022-11-10T01:13:58.012Z,5.93
2022-11-10T01:16:29.701Z,6.38
2022-11-10T01:18:58.841Z,8.25
2022-11-10T01:21:27.153Z,8.30
2022-11-10T01:23:54.217Z,8.02
2022-11-10T01:26:21.045Z,6.80
2022-11-10T01:28:47.845Z,5.53
2022-11-10T01:31:21.130Z,7.10
2022-11-10T01:33:47.795Z,6.68
2022-11-10T01:36:14.775Z,5.93
2022-11-10T01:38:42.729Z,7.70
2022-11-10T01:41:11.534Z,8.23
2022-11-10T01:43:38.926Z,8.13
2022-11-10T01:46:07.959Z,7.95
2022-11-10T01:49:00.282Z,11.27
2022-11-10T01:51:32.348Z,8.23
2022-11-10T01:54:05.384Z,8.07
2022-11-10T01:56:37.647Z,8.75
2022-11-10T01:59:12.860Z,8.70
2022-11-10T02:01:39.833Z,7.93
2022-11-10T02:04:10.738Z,7.47
2022-11-10T02:06:43.320Z,8.60
2022-11-10T02:09:10.022Z,8.63
2022-11-10T02:11:38.717Z,9.35
2022-11-10T02:14:05.725Z,7.43
2022-11-10T02:16:33.227Z,6.50
2022-11-10T02:19:22.904Z,8.68
2022-11-10T02:21:49.513Z,9.35
2022-11-10T02:24:16.353Z,7.45
2022-11-10T02:26:50.827Z,8.98
2022-11-10T02:29:17.415Z,7.78
2022-11-10T02:31:44.053Z,9.65
2022-11-10T02:34:10.777Z,9.88
2022-11-10T02:36:37.372Z,8.77
2022-11-10T02:39:04.084Z,8.68
2022-11-10T02:41:30.701Z,11.00
2022-11-10T02:43:58.072Z,9.65
2022-11-10T02:46:24.710Z,7.45
2022-11-10T02:48:51.430Z,8.77
2022-11-10T02:51:18.056Z,9.95
2022-11-10T02:53:44.630Z,9.77
2022-11-10T02:56:11.225Z,9.38
2022-11-10T02:58:37.773Z,10.35
2022-11-10T03:01:06.184Z,10.88
2022-11-10T03:03:33.213Z,9.05
2022-11-10T03:06:00.372Z,8.15
2022-11-10T03:08:27.044Z,9.55
2022-11-10T03:10:56.128Z,10.18
2022-11-10T03:13:35.633Z,8.95
2022-11-10T03:16:12.017Z,11.27
2022-11-10T03:18:38.660Z,8.95
2022-11-10T03:21:05.479Z,10.77
2022-11-10T03:23:33.827Z,12.95
2022-11-10T03:26:03.206Z,13.55
2022-11-10T03:28:30.070Z,11.40
2022-11-10T03:30:56.744Z,10.25
2022-11-10T03:33:23.999Z,12.77
2022-11-10T03:35:51.146Z,12.02
2022-11-10T03:38:17.754Z,11.52
2022-11-10T03:41:16.972Z,12.88
2022-11-10T03:43:32.857Z,10.73
2022-11-10T03:45:59.469Z,13.88
2022-11-10T03:48:26.051Z,13.48
2022-11-10T03:50:52.615Z,10.52
2022-11-10T03:53:19.435Z,13.38
2022-11-10T03:55:46.347Z,10.52
2022-11-10T03:58:12.939Z,11.77
2022-11-10T04:00:39.804Z,12.35
2022-11-10T04:03:06.395Z,14.60
2022-11-10T04:05:51.536Z,13.18
2022-11-10T04:08:36.828Z,12.70
2022-11-10T04:11:03.978Z,12.88
2022-11-10T04:13:49.103Z,13.23
2022-11-10T04:16:15.682Z,12.82
2022-11-10T04:18:42.334Z,14.00
2022-11-10T04:21:08.900Z,11.55
2022-11-10T04:23:36.064Z,14.30
2022-11-10T04:26:23.146Z,14.52
2022-11-10T04:28:51.781Z,13.15
2022-11-10T04:31:20.543Z,13.27
2022-11-10T04:33:48.117Z,14.63
2022-11-10T04:36:18.041Z,13.07
2022-11-10T04:38:45.002Z,13.75
2022-11-10T04:41:12.449Z,14.35
2022-11-10T04:43:39.774Z,12.82
2022-11-10T04:46:07.885Z,13.45
2022-11-10T04:48:35.317Z,16.02
2022-11-10T04:51:06.033Z,13.85
2022-11-10T04:53:33.431Z,16.90
2022-11-10T04:55:59.998Z,14.60
2022-11-10T04:58:26.583Z,13.73
2022-11-10T05:00:53.247Z,13.65
2022-11-10T05:03:20.244Z,17.50
2022-11-10T05:05:47.042Z,14.77
2022-11-10T05:08:13.632Z,13.65
2022-11-10T05:10:40.332Z,15.80
2022-11-10T05:13:07.104Z,15.95
2022-11-10T05:15:34.050Z,16.40
2022-11-10T05:18:00.946Z,16.05
2022-11-10T05:20:27.969Z,14.77
2022-11-10T05:23:13.623Z,15.82
2022-11-10T05:25:41.968Z,17.92
2022-11-10T05:31:01.565Z,17.38
2022-11-10T05:33:28.172Z,15.00
2022-11-10T05:35:54.746Z,16.08
2022-11-10T05:38:21.317Z,15.52
2022-11-10T05:40:47.980Z,13.95
2022-11-10T05:43:15.186Z,16.15
2022-11-10T05:45:41.743Z,18.77
2022-11-10T05:48:08.342Z,16.60
2022-11-10T05:50:34.957Z,15.02
2022-11-10T05:53:01.552Z,17.73
2022-11-10T05:55:29.070Z,20.35
2022-11-10T05:57:57.051Z,18.75
2022-11-10T06:00:26.411Z,21.17
2022-11-10T06:03:07.902Z,15.68
2022-11-10T06:05:35.980Z,18.02
2022-11-10T06:08:04.720Z,17.80
2022-11-10T06:10:32.041Z,18.52
2022-11-10T06:12:59.084Z,18.23
2022-11-10T06:15:26.306Z,16.75
2022-11-10T06:17:53.466Z,18.60
2022-11-10T06:20:20.996Z,21.45
2022-11-10T06:23:07.700Z,17.38
2022-11-10T06:25:36.589Z,16.20
2022-11-10T06:28:04.296Z,17.15
2022-11-10T06:30:32.772Z,16.13
2022-11-10T06:32:59.781Z,15.93
2022-11-10T06:35:27.282Z,17.65
2022-11-10T06:38:05.370Z,15.43
2022-11-10T06:40:32.460Z,14.00
2022-11-10T06:42:59.663Z,20.73
2022-11-10T06:45:28.264Z,18.77
2022-11-10T06:48:06.121Z,15.20
2022-11-10T06:50:33.258Z,15.50
2022-11-10T06:53:00.766Z,18.02
2022-11-10T06:55:28.472Z,16.95
2022-11-10T06:57:55.147Z,17.83
2022-11-10T07:00:22.597Z,16.45
2022-11-10T07:02:58.349Z,17.10
2022-11-10T07:05:24.996Z,16.33
2022-11-10T07:07:51.848Z,15.55
2022-11-10T07:10:18.559Z,15.88
2022-11-10T07:12:45.114Z,16.17
2022-11-10T07:15:11.667Z,17.13
2022-11-10T07:17:41.558Z,18.95
2022-11-10T07:20:08.929Z,17.70
2022-11-10T07:22:35.499Z,14.98
2022-11-10T07:25:02.097Z,17.70
2022-11-10T07:27:28.666Z,16.23
2022-11-10T07:29:55.213Z,16.48
2022-11-10T07:32:21.834Z,16.80
2022-11-10T07:34:48.429Z,16.67
2022-11-10T07:37:15.006Z,17.48
2022-11-10T07:39:41.675Z,17.25
2022-11-10T07:42:08.561Z,15.60
2022-11-10T07:44:35.106Z,14.55
2022-11-10T07:47:02.235Z,17.40
2022-11-10T07:49:28.854Z,15.00
2022-11-10T07:51:55.596Z,14.20
2022-11-10T07:54:22.217Z,12.45
2022-11-10T07:56:48.852Z,15.73
2022-11-10T07:59:15.764Z,16.60
2022-11-10T08:01:42.362Z,15.23
2022-11-10T08:04:09.229Z,16.65
2022-11-10T08:06:36.711Z,17.00
2022-11-10T08:09:03.563Z,16.65
2022-11-10T08:11:30.152Z,17.27
2022-11-10T08:13:56.773Z,17.67
2022-11-10T08:16:23.347Z,16.23
2022-11-10T08:18:50.035Z,22.15
2022-11-10T08:21:16.668Z,15.05
2022-11-10T08:23:43.206Z,14.18
2022-11-10T08:26:10.210Z,15.40
2022-11-10T08:28:38.307Z,18.60
2022-11-10T08:31:06.234Z,18.45
2022-11-10T08:33:32.987Z,14.43
2022-11-10T08:36:01.872Z,14.13
2022-11-10T08:38:28.582Z,13.75
2022-11-10T08:40:57.811Z,15.45
2022-11-10T08:43:25.568Z,12.27
2022-11-10T08:45:56.972Z,12.77
2022-11-10T08:48:24.364Z,14.63
2022-11-10T08:50:51.766Z,13.25
2022-11-10T08:53:23.992Z,13.45
2022-11-10T08:55:53.070Z,13.90
2022-11-10T08:58:21.724Z,12.38
2022-11-10T09:00:48.957Z,11.18
2022-11-10T09:03:18.751Z,12.55
2022-11-10T09:05:46.650Z,12.77
2022-11-10T09:08:13.637Z,14.20
2022-11-10T09:10:45.974Z,12.80
2022-11-10T09:15:41.430Z,12.25
2022-11-10T09:18:09.529Z,10.85
2022-11-10T09:20:37.611Z,12.60
2022-11-10T09:23:09.425Z,13.43
2022-11-10T09:25:36.205Z,10.90
2022-11-10T09:28:02.817Z,10.20
2022-11-10T09:30:29.606Z,12.15
2022-11-10T09:33:00.316Z,9.50
2022-11-10T09:35:28.720Z,9.48
2022-11-10T09:37:55.360Z,11.95
2022-11-10T09:41:02.471Z,12.60
2022-11-10T09:44:06.837Z,10.95
2022-11-10T09:46:39.092Z,9.77
2022-11-10T09:49:20.497Z,11.07
2022-11-10T09:51:48.677Z,10.35
2022-11-10T09:54:45.110Z,11.07
2022-11-10T09:57:16.374Z,9.80
2022-11-10T09:59:44.344Z,10.18
2022-11-10T10:02:22.237Z,9.35
2022-11-10T10:04:58.520Z,10.40
2022-11-10T10:07:33.805Z,11.30
2022-11-10T10:10:17.975Z,9.23
2022-11-10T10:12:59.178Z,8.88
2022-11-10T10:16:03.666Z,8.00
2022-11-10T10:19:05.899Z,9.27
2022-11-10T10:21:44.362Z,7.20
2022-11-10T10:24:22.154Z,8.02
2022-11-10T10:26:55.650Z,8.23
2022-11-10T10:29:25.660Z,9.10
2022-11-10T10:31:53.383Z,7.80
2022-11-10T10:34:30.167Z,6.55
2022-11-10T10:36:56.866Z,8.52
2022-11-10T10:39:48.764Z,7.10
2022-11-10T10:42:36.286Z,7.70
2022-11-10T10:45:29.102Z,8.93
2022-11-10T10:47:57.377Z,6.00
2022-11-10T10:50:28.916Z,6.70
2022-11-10T10:53:13.814Z,6.33
2022-11-10T10:55:48.278Z,6.68
2022-11-10T10:58:26.349Z,4.82
2022-11-10T11:01:05.987Z,6.60
2022-11-10T11:03:44.974Z,7.18
2022-11-10T11:06:14.570Z,5.03
2022-11-10T11:09:01.123Z,6.18
2022-11-10T11:11:32.469Z,7.63
2022-11-10T11:14:28.581Z,7.07
2022-11-10T11:17:02.250Z,5.20
2022-11-10T11:19:34.997Z,6.47
2022-11-10T11:22:36.614Z,5.75
2022-11-10T11:25:32.040Z,4.78
2022-11-10T11:28:17.358Z,4.85
2022-11-10T11:31:06.690Z,6.65
2022-11-10T11:33:57.945Z,4.53
2022-11-10T11:36:43.166Z,6.30
2022-11-10T11:39:46.004Z,5.72
2022-11-10T11:42:50.532Z,7.55
2022-11-10T11:45:36.740Z,4.68
2022-11-10T11:48:16.323Z,5.43
2022-11-10T11:50:44.675Z,4.75
2022-11-10T11:53:28.250Z,4.85
2022-11-10T11:56:24.855Z,5.90
2022-11-10T11:59:34.500Z,3.00
2022-11-10T12:02:21.386Z,3.72
2022-11-10T12:05:06.478Z,4.88
2022-11-10T12:07:45.135Z,4.25
2022-11-10T12:10:27.292Z,4.10
2022-11-10T12:13:23.862Z,3.28
2022-11-10T12:16:15.248Z,3.33
2022-11-10T12:18:51.027Z,3.47
2022-11-10T12:21:30.726Z,3.70
2022-11-10T12:24:15.587Z,5.13
2022-11-10T12:26:54.717Z,3.60
2022-11-10T12:29:39.327Z,5.95
2022-11-10T12:32:26.852Z,5.18
2022-11-10T12:34:55.290Z,3.58
2022-11-10T12:37:31.381Z,2.97
2022-11-10T12:40:14.312Z,3.35
2022-11-10T12:42:44.058Z,5.28
2022-11-10T12:45:28.902Z,5.40
2022-11-10T12:47:56.259Z,2.45
2022-11-10T12:50:31.807Z,3.88
2022-11-10T12:53:05.073Z,3.53
2022-11-10T12:55:36.906Z,2.88
2022-11-10T12:58:05.915Z,4.43
2022-11-10T13:00:39.905Z,3.90
2022-11-10T13:03:15.915Z,2.70
2022-11-10T13:05:45.322Z,3.03
2022-11-10T13:08:24.125Z,3.13
2022-11-10T13:11:04.109Z,2.70
2022-11-10T13:13:39.674Z,4.32
2022-11-10T13:16:10.193Z,4.72
2022-11-10T13:18:36.777Z,3.10
2022-11-10T13:21:03.490Z,2.22
2022-11-10T13:23:48.573Z,2.63
2022-11-10T13:26:44.485Z,3.17
2022-11-10T13:29:20.752Z,3.85
2022-11-10T13:31:52.512Z,2.85
2022-11-10T13:34:19.055Z,4.07
2022-11-10T13:36:48.239Z,4.15
2022-11-10T13:39:20.609Z,4.13
2022-11-10T13:44:40.817Z,28.35
2022-11-10T13:47:19.384Z,7.22
2022-11-10T13:50:04.224Z,6.03
2022-11-10T13:52:45.840Z,5.70
2022-11-10T13:55:21.451Z,8.27
2022-11-10T13:58:09.889Z,5.00
2022-11-10T14:00:37.211Z,4.03
2022-11-10T14:03:05.751Z,4.93
2022-11-10T14:05:34.230Z,3.97
2022-11-10T14:08:06.260Z,3.97
2022-11-10T14:10:52.195Z,2.55
2022-11-10T14:13:37.717Z,4.97
2022-11-10T14:16:13.875Z,4.30
2022-11-10T14:18:46.637Z,3.00
2022-11-10T14:21:36.842Z,3.72
2022-11-10T14:24:11.497Z,4.43
2022-11-10T14:26:51.956Z,4.20
2022-11-10T14:29:28.025Z,12.40
2022-11-10T14:31:56.234Z,22.70
2022-11-10T14:34:23.702Z,8.90
2022-11-10T14:36:58.366Z,6.03
2022-11-10T14:39:33.261Z,3.35
2022-11-10T14:42:03.221Z,4.82
2022-11-10T14:44:31.991Z,3.42
2022-11-10T14:47:23.806Z,2.92
2022-11-10T14:50:14.569Z,3.57
2022-11-10T14:52:43.594Z,5.10
2022-11-10T14:55:22.574Z,3.88
2022-11-10T14:58:10.939Z,3.50
2022-11-10T15:00:39.921Z,3.13
2022-11-10T15:03:08.646Z,4.82
2022-11-10T15:05:35.616Z,4.13
2022-11-10T15:08:03.949Z,4.07
2022-11-10T15:10:48.770Z,3.10
2022-11-10T15:13:27.139Z,3.47
2022-11-10T15:16:29.274Z,2.92
2022-11-10T15:19:16.204Z,2.08
2022-11-10T15:21:42.851Z,3.78
2022-11-10T15:24:11.079Z,6.18
2022-11-10T15:26:40.180Z,1.95
2022-11-10T15:29:17.782Z,4.35
2022-11-10T15:31:44.725Z,4.07
2022-11-10T15:34:40.775Z,3.38
2022-11-10T15:37:31.353Z,2.80
2022-11-10T15:40:33.131Z,2.20
2022-11-10T15:43:19.582Z,2.10
2022-11-10T15:45:55.157Z,5.15
2022-11-10T15:48:23.193Z,3.45
2022-11-10T15:50:53.538Z,5.45
2022-11-10T15:53:30.591Z,3.72
2022-11-10T15:55:57.169Z,3.40
2022-11-10T15:58:24.206Z,4.80
2022-11-10T16:00:51.068Z,3.50
2022-11-10T16:03:20.266Z,4.38
2022-11-10T16:05:48.275Z,3.72
2022-11-10T16:08:17.096Z,4.20
2022-11-10T16:10:46.376Z,3.28
2022-11-10T16:13:16.097Z,3.13
2022-11-10T16:15:43.545Z,3.03
2022-11-10T16:18:14.868Z,4.28
2022-11-10T16:20:42.282Z,4.28
2022-11-10T16:23:09.530Z,4.00
2022-11-10T16:25:38.185Z,4.05
2022-11-10T16:28:05.630Z,2.25
2022-11-10T16:30:33.659Z,2.67
2022-11-10T16:33:00.544Z,3.45
2022-11-10T16:35:27.742Z,4.32
2022-11-10T16:37:54.590Z,3.13
2022-11-10T16:40:23.633Z,4.95
2022-11-10T16:42:50.353Z,9.10
2022-11-10T16:45:21.770Z,8.25
2022-11-10T16:47:52.059Z,4.70
2022-11-10T16:50:31.322Z,4.97
2022-11-10T16:53:00.415Z,5.13
2022-11-10T16:55:27.062Z,4.63
2022-11-10T16:57:55.272Z,3.80
2022-11-10T17:00:21.908Z,3.58
2022-11-10T17:03:24.159Z,3.17
2022-11-10T17:05:50.782Z,6.75
2022-11-10T17:08:25.937Z,6.60
2022-11-10T17:10:52.951Z,6.47
2022-11-10T17:13:19.532Z,20.92
2022-11-10T17:15:46.891Z,13.93
2022-11-10T17:18:16.939Z,7.53
2022-11-10T17:20:47.013Z,4.50
2022-11-10T17:23:15.998Z,4.35
2022-11-10T17:25:44.399Z,5.22
2022-11-10T17:28:15.760Z,7.10
2022-11-10T17:30:44.310Z,3.70
2022-11-10T17:33:12.523Z,3.55
2022-11-10T17:35:47.143Z,3.42
2022-11-10T17:38:21.957Z,4.93
2022-11-10T17:40:48.816Z,6.15
2022-11-10T17:43:15.424Z,4.32
2022-11-10T17:45:42.128Z,3.05
2022-11-10T17:48:09.089Z,4.45
2022-11-10T17:50:37.637Z,2.80
2022-11-10T17:53:21.060Z,4.47
2022-11-10T17:55:48.035Z,3.70
2022-11-10T17:58:15.570Z,4.10
2022-11-10T18:00:42.561Z,3.90
2022-11-10T18:03:14.914Z,5.65
2022-11-10T18:08:08.335Z,3.30
2022-11-10T18:10:34.976Z,5.25
2022-11-10T18:13:01.550Z,4.65
2022-11-10T18:15:28.209Z,3.55
2022-11-10T18:18:00.093Z,4.28
2022-11-10T18:20:27.734Z,3.33
2022-11-10T18:22:54.311Z,4.45
2022-11-10T18:25:20.983Z,4.07
2022-11-10T18:27:47.612Z,5.50
2022-11-10T18:30:14.812Z,2.85
2022-11-10T18:32:41.496Z,3.75
2022-11-10T18:35:08.316Z,2.70
2022-11-10T18:37:38.892Z,3.50
2022-11-10T18:40:07.330Z,10.80
2022-11-10T18:42:34.362Z,5.90
2022-11-10T18:45:00.947Z,3.45
2022-11-10T18:47:27.718Z,5.22
2022-11-10T18:49:54.345Z,3.78
2022-11-10T18:52:20.922Z,4.15
2022-11-10T18:54:47.539Z,3.42
2022-11-10T18:57:16.446Z,3.88
2022-11-10T18:59:43.288Z,3.15
2022-11-10T19:02:11.718Z,3.67
2022-11-10T19:04:38.535Z,4.20
2022-11-10T19:07:05.346Z,3.33
2022-11-10T19:09:32.843Z,2.83
2022-11-10T19:11:59.425Z,2.63
2022-11-10T19:14:26.010Z,4.80
2022-11-10T19:16:52.638Z,3.33
2022-11-10T19:19:19.386Z,5.63
2022-11-10T19:21:45.982Z,3.00
2022-11-10T19:24:18.196Z,2.75
2022-11-10T19:26:52.589Z,2.70
2022-11-10T19:29:19.520Z,2.92
2022-11-10T19:31:46.582Z,3.83
2022-11-10T19:34:13.196Z,3.22
2022-11-10T19:36:39.784Z,2.72
2022-11-10T19:39:06.437Z,2.97
2022-11-10T19:41:33.061Z,5.35
2022-11-10T19:44:00.238Z,3.70
2022-11-10T19:46:28.438Z,4.60
2022-11-10T19:48:55.650Z,2.25
2022-11-10T19:51:23.264Z,2.42
2022-11-10T19:53:57.794Z,3.15
2022-11-10T19:56:27.708Z,3.00
2022-11-10T19:58:58.399Z,2.25
2022-11-10T20:01:26.184Z,3.13
2022-11-10T20:03:52.969Z,3.40
2022-11-10T20:06:22.980Z,2.45
2022-11-10T20:08:50.070Z,4.00
2022-11-10T20:11:22.622Z,3.85
2022-11-10T20:13:54.694Z,3.63
2022-11-10T20:16:22.193Z,3.88
2022-11-10T20:18:48.915Z,6.60
2022-11-10T20:21:17.733Z,5.38
2022-11-10T20:23:44.394Z,4.22
2022-11-10T20:26:18.030Z,4.38
2022-11-10T20:28:45.123Z,3.22
2022-11-10T20:31:16.382Z,2.38
2022-11-10T20:33:43.600Z,3.13
2022-11-10T20:36:18.938Z,2.63
2022-11-10T20:38:47.662Z,3.78
2022-11-10T20:41:17.022Z,2.55
2022-11-10T20:43:43.587Z,4.57
2022-11-10T20:46:33.424Z,5.28
2022-11-10T20:49:00.746Z,4.15
2022-11-10T20:51:27.302Z,3.10
2022-11-10T20:53:54.798Z,3.92
2022-11-10T20:56:24.125Z,1.95
2022-11-10T20:58:54.920Z,2.67
2022-11-10T21:01:23.248Z,5.20
2022-11-10T21:03:49.837Z,5.03
2022-11-10T21:06:16.467Z,2.70
2022-11-10T21:08:43.069Z,2.70
2022-11-10T21:11:10.487Z,4.13
2022-11-10T21:13:37.724Z,3.92
2022-11-10T21:16:06.247Z,2.88
2022-11-10T21:18:36.888Z,3.00
2022-11-10T21:21:04.883Z,2.35
2022-11-10T21:23:31.873Z,3.03
2022-11-10T21:26:00.694Z,4.15
2022-11-10T21:28:27.568Z,4.05
2022-11-10T21:31:03.447Z,4.60
2022-11-10T21:33:30.093Z,3.90
2022-11-10T21:35:56.755Z,3.78
2022-11-10T21:38:23.344Z,3.20
2022-11-10T21:40:49.993Z,4.10
2022-11-10T21:43:16.560Z,2.03
2022-11-10T21:45:43.125Z,2.40
2022-11-10T21:48:09.709Z,2.95
2022-11-10T21:50:36.294Z,3.45
2022-11-10T21:53:08.426Z,2.58
2022-11-10T21:55:35.071Z,2.20
2022-11-10T21:58:01.761Z,9.52
2022-11-10T22:00:28.476Z,4.57
2022-11-10T22:02:59.406Z,3.70
2022-11-10T22:05:26.384Z,2.38
2022-11-10T22:07:53.025Z,2.63
2022-11-10T22:10:38.487Z,3.67
2022-11-10T22:13:24.102Z,3.20
2022-11-10T22:16:09.674Z,3.78
2022-11-10T22:18:40.431Z,2.80
2022-11-10T22:21:10.617Z,2.90
2022-11-10T22:23:55.743Z,1.70
2022-11-10T22:26:22.331Z,3.20
2022-11-10T22:28:48.908Z,2.47
2022-11-10T22:31:15.582Z,2.72
2022-11-10T22:33:43.260Z,3.30
2022-11-10T22:36:13.441Z,3.13
2022-11-10T22:38:41.593Z,3.13
2022-11-10T22:41:33.642Z,3.15
2022-11-10T22:44:03.878Z,3.53
2022-11-10T22:46:31.707Z,2.15
2022-11-10T22:48:58.529Z,3.90
2022-11-10T22:51:27.256Z,1.85
2022-11-10T22:53:53.838Z,3.05
2022-11-10T22:56:20.420Z,2.58
2022-11-10T22:58:47.568Z,3.13
2022-11-10T23:01:14.272Z,2.40
2022-11-10T23:03:41.073Z,3.22
2022-11-10T23:06:08.258Z,2.38
2022-11-10T23:08:35.565Z,2.63
2022-11-10T23:11:03.838Z,2.85
2022-11-10T23:13:32.170Z,1.48
2022-11-10T23:16:04.097Z,2.50
2022-11-10T23:18:30.869Z,4.50
2022-11-10T23:20:59.175Z,2.70
2022-11-10T23:23:26.589Z,2.85
2022-11-10T23:26:02.296Z,3.17
2022-11-10T23:28:29.981Z,2.17
2022-11-10T23:31:08.929Z,2.42
2022-11-10T23:33:37.024Z,1.85
2022-11-10T23:36:04.907Z,2.83
2022-11-10T23:38:33.656Z,2.08
2022-11-10T23:41:01.511Z,2.35
2022-11-10T23:43:29.254Z,2.83
2022-11-10T23:46:11.328Z,2.42
2022-11-10T23:48:39.143Z,2.67
2022-11-10T23:51:07.093Z,2.53
2022-11-10T23:53:34.282Z,3.40
2022-11-10T23:56:03.570Z,2.80
2022-11-10T23:58:30.370Z,2.70
